Terminal Aerodrome Forecast
Issued by NWS

Home | Current Version | Previous Version | Text Only | Print | Product List | Glossary Off
Versions: 1 2 3 4 5 6 7 8 9 10 11 12 13 14 15 16

000
FTUS43 KIWX 021700
TAFSBN
TAF
KSBN 021730Z 0218/0318 27009KT P6SM FEW023
     FM030000 16003KT P6SM OVC100
     FM031100 15008KT 5SM -SN OVC040
      TEMPO 0313/0316 15012KT 1/2SM PL FG OVC010
     FM031600 16014KT 1/2SM FZRA FG OVC010 WS020/20040KT=

USA.gov is the U.S. government's official web portal to all federal, state and local government web resources and services.